Geervliet — PCLI — position and weather

sailwx.info

Track history (hours):
 
Tides and Currents Weather Stations Pressure Air Temp Water Temp Dewpoint Dewpoint Depression Visibility Wind Speed Wind Dir Waves Ship Positions

Geervliet

Last reported at 2014-Oct-23 06:18 UTC. Time now 2014-Oct-23 11:51 UTC.
Position N 40°44' E 029°42'.

Length 86 m; draft 4.7 m.

Type: Cargo ship. MMSI: 246803000.

Date/timePositionNaut miles runAvg speedWind from/ knotsBaromVisibWave heightAir tempDewpointWater temp
2014-Oct-23 06:18N 40°44' E 029°42'910.3
2014-Oct-23 05:27N 40°45' E 029°30'7 8.1
2014-Oct-23 04:33N 40°43' E 029°21'8 7.7
2014-Oct-23 03:33N 40°43' E 029°11'7 7.0
2014-Oct-23 02:33N 40°43' E 029°02'7 7.1
2014-Oct-23 01:33N 40°44' E 028°52'7 7.3
2014-Oct-23 00:33N 40°44' E 028°43'7 7.0
2014-Oct-22 23:33N 40°44' E 028°33'217 8.3
2014-Oct-21 21:29N 38°25' E 024°57'910.3
2014-Oct-21 20:33N 38°17' E 024°51'1110.5
2014-Oct-21 19:31N 38°08' E 024°45'1010.6
2014-Oct-21 18:33N 37°59' E 024°39'10 9.9
2014-Oct-21 17:30N 37°50' E 024°30'910.0
2014-Oct-21 16:33N 37°45' E 024°21'1210.5
2014-Oct-21 15:26N 37°36' E 024°11'1010.5
2014-Oct-21 14:27N 37°27' E 024°04'1010.2
2014-Oct-21 13:30N 37°19' E 023°58'59 9.9
2014-Oct-21 07:31N 36°29' E 023°19'10 9.8
2014-Oct-21 06:32N 36°23' E 023°09'1410.2
2014-Oct-21 05:12N 36°24' E 022°53'386 9.5
2014-Oct-19 12:33N 36°35' E 014°53'9 8.2
2014-Oct-19 11:27N 36°36' E 014°41'8 8.9
2014-Oct-19 10:33N 36°37' E 014°32'9 9.4
2014-Oct-19 09:33N 36°41' E 014°21'1010.4
2014-Oct-19 08:33N 36°45' E 014°09'1110.9
2014-Oct-19 07:33N 36°49' E 013°56'1110.6
2014-Oct-19 06:33N 36°54' E 013°44'1110.3
2014-Oct-19 05:32N 36°58' E 013°32'148 9.9
2014-Oct-18 14:33N 37°53' E 010°38'1010.3
2014-Oct-18 13:33N 37°53' E 010°25'1110.4
2014-Oct-18 12:32N 37°53' E 010°12'1010.3
2014-Oct-18 11:33N 37°54' E 009°59'1010.1
2014-Oct-18 10:33N 37°54' E 009°46'1010.0
2014-Oct-18 09:33N 37°55' E 009°34'1010.1
2014-Oct-18 08:33N 37°56' E 009°21'1010.1
2014-Oct-18 07:33N 37°57' E 009°08'1010.2
2014-Oct-18 06:33N 37°58' E 008°55'1010.3
2014-Oct-18 05:33N 37°58' E 008°42'1110.5
2014-Oct-18 04:32N 37°59' E 008°29'1010.3
2014-Oct-18 03:33N 37°58' E 008°16'20110.0
2014-Oct-17 07:33N 37°34' E 004°04'1510.0
2014-Oct-17 06:05N 37°32' E 003°45'44210.4
2014-Oct-15 11:23N 35°56' W 005°14'5 6.0
2014-Oct-15 10:33N 35°54' W 005°19'0 0.0
2014-Oct-15 09:33N 35°54' W 005°19'0 0.0
2014-Oct-15 08:33N 35°54' W 005°19'0 0.0
2014-Oct-15 07:33N 35°54' W 005°19'0 0.0
2014-Oct-15 06:33N 35°54' W 005°19'0 0.0
2014-Oct-15 05:33N 35°54' W 005°19'1 0.7
2014-Oct-15 04:33N 35°55' W 005°19'7 7.5
2014-Oct-15 03:33N 35°57' W 005°28'  
Track history (hours):
 
Tides and Currents Weather Stations Pressure Air Temp Water Temp Dewpoint Dewpoint Depression Visibility Wind Speed Wind Dir Waves Ship Positions

Geervliet

Last reported at 2014-Oct-23 06:18 UTC. Time now 2014-Oct-23 11:51 UTC.
Position N 40°44' E 029°42'.

Length 86 m; draft 4.7 m.

Type: Cargo ship. MMSI: 246803000.

Date/timePositionNaut miles runAvg speedWind from/ knotsBaromVisibWave heightAir tempDewpointWater temp
2014-Oct-23 06:18N 40°44' E 029°42'910.3
2014-Oct-23 05:27N 40°45' E 029°30'7 8.1
2014-Oct-23 04:33N 40°43' E 029°21'8 7.7
2014-Oct-23 03:33N 40°43' E 029°11'7 7.0
2014-Oct-23 02:33N 40°43' E 029°02'7 7.1
2014-Oct-23 01:33N 40°44' E 028°52'7 7.3
2014-Oct-23 00:33N 40°44' E 028°43'7 7.0
2014-Oct-22 23:33N 40°44' E 028°33'217 8.3
2014-Oct-21 21:29N 38°25' E 024°57'910.3
2014-Oct-21 20:33N 38°17' E 024°51'1110.5
2014-Oct-21 19:31N 38°08' E 024°45'1010.6
2014-Oct-21 18:33N 37°59' E 024°39'10 9.9
2014-Oct-21 17:30N 37°50' E 024°30'910.0
2014-Oct-21 16:33N 37°45' E 024°21'1210.5
2014-Oct-21 15:26N 37°36' E 024°11'1010.5
2014-Oct-21 14:27N 37°27' E 024°04'1010.2
2014-Oct-21 13:30N 37°19' E 023°58'59 9.9
2014-Oct-21 07:31N 36°29' E 023°19'10 9.8
2014-Oct-21 06:32N 36°23' E 023°09'1410.2
2014-Oct-21 05:12N 36°24' E 022°53'386 9.5
2014-Oct-19 12:33N 36°35' E 014°53'9 8.2
2014-Oct-19 11:27N 36°36' E 014°41'8 8.9
2014-Oct-19 10:33N 36°37' E 014°32'9 9.4
2014-Oct-19 09:33N 36°41' E 014°21'1010.4
2014-Oct-19 08:33N 36°45' E 014°09'1110.9
2014-Oct-19 07:33N 36°49' E 013°56'1110.6
2014-Oct-19 06:33N 36°54' E 013°44'1110.3
2014-Oct-19 05:32N 36°58' E 013°32'148 9.9
2014-Oct-18 14:33N 37°53' E 010°38'1010.3
2014-Oct-18 13:33N 37°53' E 010°25'1110.4
2014-Oct-18 12:32N 37°53' E 010°12'1010.3
2014-Oct-18 11:33N 37°54' E 009°59'1010.1
2014-Oct-18 10:33N 37°54' E 009°46'1010.0
2014-Oct-18 09:33N 37°55' E 009°34'1010.1
2014-Oct-18 08:33N 37°56' E 009°21'1010.1
2014-Oct-18 07:33N 37°57' E 009°08'1010.2
2014-Oct-18 06:33N 37°58' E 008°55'1010.3
2014-Oct-18 05:33N 37°58' E 008°42'1110.5
2014-Oct-18 04:32N 37°59' E 008°29'1010.3
2014-Oct-18 03:33N 37°58' E 008°16'20110.0
2014-Oct-17 07:33N 37°34' E 004°04'1510.0
2014-Oct-17 06:05N 37°32' E 003°45'44210.4
2014-Oct-15 11:23N 35°56' W 005°14'5 6.0
2014-Oct-15 10:33N 35°54' W 005°19'0 0.0
2014-Oct-15 09:33N 35°54' W 005°19'0 0.0
2014-Oct-15 08:33N 35°54' W 005°19'0 0.0
2014-Oct-15 07:33N 35°54' W 005°19'0 0.0
2014-Oct-15 06:33N 35°54' W 005°19'0 0.0
2014-Oct-15 05:33N 35°54' W 005°19'1 0.7
2014-Oct-15 04:33N 35°55' W 005°19'7 7.5
2014-Oct-15 03:33N 35°57' W 005°28'  

Dump ship's entire track history